createdAt,value
2018-08-20T00:00:31.442Z,11.34
2018-08-20T00:01:31.539Z,11.41
2018-08-20T00:02:31.422Z,11.29
2018-08-20T00:03:31.430Z,11.33
2018-08-20T00:04:31.496Z,11.22
2018-08-20T00:05:31.477Z,11.22
2018-08-20T00:06:31.446Z,11.32
2018-08-20T00:07:31.450Z,11.42
2018-08-20T00:08:31.622Z,11.36
2018-08-20T00:09:31.483Z,11.49
2018-08-20T00:10:31.473Z,11.52
2018-08-20T00:11:31.573Z,11.54
2018-08-20T00:12:31.459Z,11.52
2018-08-20T00:13:31.466Z,11.49
2018-08-20T00:14:31.463Z,11.54
2018-08-20T00:15:31.481Z,11.5
2018-08-20T00:16:31.521Z,11.55
2018-08-20T00:17:31.463Z,11.55
2018-08-20T00:18:31.521Z,11.5
2018-08-20T00:19:31.497Z,11.39
2018-08-20T00:20:31.480Z,11.55
2018-08-20T00:21:31.797Z,11.59
2018-08-20T00:22:31.554Z,11.6
2018-08-20T00:23:31.573Z,11.56
2018-08-20T00:24:31.453Z,11.56
2018-08-20T00:25:31.610Z,11.54
2018-08-20T00:26:31.446Z,11.57
2018-08-20T00:27:31.483Z,11.48
2018-08-20T00:28:31.437Z,11.4
2018-08-20T00:29:31.496Z,11.42
2018-08-20T00:30:31.579Z,11.47
2018-08-20T00:31:31.584Z,11.35
2018-08-20T00:32:31.474Z,11.33
2018-08-20T00:33:31.587Z,11.49
2018-08-20T00:34:31.452Z,11.55
2018-08-20T00:35:31.565Z,11.52
2018-08-20T00:36:31.447Z,11.53
2018-08-20T00:37:31.426Z,11.54
2018-08-20T00:38:31.504Z,11.55
2018-08-20T00:39:31.547Z,11.54
2018-08-20T00:40:31.524Z,11.52
2018-08-20T00:41:31.711Z,11.53
2018-08-20T00:42:31.665Z,11.55
2018-08-20T00:43:31.557Z,11.55
2018-08-20T00:44:31.469Z,11.44
2018-08-20T00:45:31.573Z,11.49
2018-08-20T00:46:31.480Z,11.39
2018-08-20T00:47:32.161Z,11.44
2018-08-20T00:48:31.425Z,11.42
2018-08-20T00:49:31.586Z,11.48
2018-08-20T00:50:31.659Z,11.31
2018-08-20T00:51:31.525Z,11.26
2018-08-20T00:52:31.551Z,11.23
2018-08-20T00:53:31.474Z,11.33
2018-08-20T00:54:31.465Z,11.5
2018-08-20T00:55:31.572Z,11.41
2018-08-20T00:56:31.486Z,11.49
2018-08-20T00:57:31.472Z,11.41
2018-08-20T00:58:31.506Z,11.36
2018-08-20T00:59:32.273Z,11.39
2018-08-20T01:00:31.815Z,11.46
2018-08-20T01:01:31.461Z,11.43
2018-08-20T01:02:31.466Z,11.45
2018-08-20T01:03:31.447Z,11.46
2018-08-20T01:04:31.533Z,11.41
2018-08-20T01:05:31.530Z,11.49
2018-08-20T01:06:31.454Z,11.42
2018-08-20T01:07:31.441Z,11.34
2018-08-20T01:08:31.435Z,11.32
2018-08-20T01:09:31.439Z,11.34
2018-08-20T01:10:31.480Z,11.39
2018-08-20T01:11:31.427Z,11.46
2018-08-20T01:12:31.430Z,11.48
2018-08-20T01:13:31.466Z,11.48
2018-08-20T01:14:31.450Z,11.43
2018-08-20T01:15:31.413Z,11.44
2018-08-20T01:16:31.494Z,11.31
2018-08-20T01:17:31.578Z,11.42
2018-08-20T01:18:31.542Z,11.43
2018-08-20T01:19:31.555Z,11.46
2018-08-20T01:20:31.536Z,11.39
2018-08-20T01:21:31.423Z,11.24
2018-08-20T01:22:31.652Z,11.37
2018-08-20T01:23:31.504Z,11.41
2018-08-20T01:24:31.609Z,11.42
2018-08-20T01:25:32.202Z,11.36
2018-08-20T01:26:31.473Z,11.36
2018-08-20T01:27:31.858Z,11.39
2018-08-20T01:28:31.467Z,11.31
2018-08-20T01:29:31.553Z,11.44
2018-08-20T01:30:31.616Z,11.34
2018-08-20T01:31:31.625Z,11.39
2018-08-20T01:32:31.516Z,11.47
2018-08-20T01:33:31.585Z,11.51
2018-08-20T01:34:31.596Z,11.43
2018-08-20T01:35:31.646Z,11.4
2018-08-20T01:36:31.647Z,11.32
2018-08-20T01:37:31.473Z,11.28
2018-08-20T01:38:31.434Z,11.29
2018-08-20T01:39:31.611Z,11.42
2018-08-20T01:40:31.495Z,11.45
2018-08-20T01:41:31.405Z,11.46
2018-08-20T01:42:31.517Z,11.38
2018-08-20T01:43:31.431Z,11.41
2018-08-20T01:44:31.756Z,11.45
2018-08-20T01:45:31.454Z,11.45
2018-08-20T01:46:31.452Z,11.43
2018-08-20T01:47:31.422Z,11.41
2018-08-20T01:48:31.554Z,11.35
2018-08-20T01:49:31.453Z,11.43
2018-08-20T01:50:31.439Z,11.4
2018-08-20T01:51:31.653Z,11.36
2018-08-20T01:52:31.475Z,11.34
2018-08-20T01:53:31.478Z,11.34
2018-08-20T01:54:31.468Z,11.31
2018-08-20T01:55:31.474Z,11.34
2018-08-20T01:56:31.498Z,11.43
2018-08-20T01:57:31.724Z,11.49
2018-08-20T01:58:32.357Z,11.36
2018-08-20T01:59:31.665Z,11.34
2018-08-20T02:00:31.630Z,11.42
2018-08-20T02:01:31.451Z,11.38
2018-08-20T02:02:31.593Z,11.43
2018-08-20T02:03:31.671Z,11.45
2018-08-20T02:04:31.618Z,11.5
2018-08-20T02:05:31.546Z,11.41
2018-08-20T02:06:31.621Z,11.42
2018-08-20T02:07:32.299Z,11.43
2018-08-20T02:08:31.540Z,11.48
2018-08-20T02:09:31.854Z,11.42
2018-08-20T02:10:31.526Z,11.3
2018-08-20T02:11:31.578Z,11.31
2018-08-20T02:12:31.531Z,11.32
2018-08-20T02:13:31.609Z,11.33
2018-08-20T02:14:31.578Z,11.38
2018-08-20T02:15:31.565Z,11.36
2018-08-20T02:16:31.503Z,11.42
2018-08-20T02:17:31.655Z,11.41
2018-08-20T02:18:31.951Z,11.39
2018-08-20T02:19:31.511Z,11.37
2018-08-20T02:20:31.646Z,11.41
2018-08-20T02:21:31.503Z,11.36
2018-08-20T02:22:31.502Z,11.31
2018-08-20T02:23:31.412Z,11.47
2018-08-20T02:24:31.466Z,11.48
2018-08-20T02:25:31.442Z,11.43
2018-08-20T02:26:31.658Z,11.34
2018-08-20T02:27:31.820Z,11.38
2018-08-20T02:28:31.472Z,11.41
2018-08-20T02:29:31.563Z,11.33
2018-08-20T02:30:31.422Z,11.41
2018-08-20T02:31:31.406Z,11.42
2018-08-20T02:32:31.505Z,11.27
2018-08-20T02:33:31.827Z,11.32
2018-08-20T02:34:31.645Z,11.45
2018-08-20T02:35:31.524Z,11.39
2018-08-20T02:36:31.908Z,11.41
2018-08-20T02:37:31.496Z,11.31
2018-08-20T02:38:31.561Z,11.26
2018-08-20T02:39:31.460Z,11.38
2018-08-20T02:40:32.156Z,11.29
2018-08-20T02:41:31.396Z,11.32
2018-08-20T02:42:31.576Z,11.4
2018-08-20T02:43:31.409Z,11.42
2018-08-20T02:44:31.567Z,11.37
2018-08-20T02:45:31.534Z,11.43
2018-08-20T02:46:31.504Z,11.44
2018-08-20T02:47:31.480Z,11.37
2018-08-20T02:48:31.398Z,11.4
2018-08-20T02:49:31.462Z,11.48
2018-08-20T02:50:31.462Z,11.34
2018-08-20T02:51:31.417Z,11.32
2018-08-20T02:52:31.647Z,11.46
2018-08-20T02:53:31.413Z,11.45
2018-08-20T02:54:31.394Z,11.45
2018-08-20T02:55:31.392Z,11.33
2018-08-20T02:56:31.425Z,11.33
2018-08-20T02:57:31.425Z,11.38
2018-08-20T02:58:31.473Z,11.47
2018-08-20T02:59:31.378Z,11.4
2018-08-20T03:00:31.504Z,11.37
2018-08-20T03:01:31.415Z,11.31
2018-08-20T03:02:31.466Z,11.27
2018-08-20T03:03:31.768Z,11.34
2018-08-20T03:04:31.516Z,11.38
2018-08-20T03:05:31.494Z,11.34
2018-08-20T03:06:31.439Z,11.38
2018-08-20T03:07:32.245Z,11.4
2018-08-20T03:08:31.449Z,11.48
2018-08-20T03:09:31.542Z,11.43
2018-08-20T03:10:31.394Z,11.43
2018-08-20T03:11:31.802Z,11.3
2018-08-20T03:12:31.481Z,11.35
2018-08-20T03:13:31.677Z,11.4
2018-08-20T03:14:31.548Z,11.45
2018-08-20T03:15:31.451Z,11.35
2018-08-20T03:16:32.258Z,11.35
2018-08-20T03:17:32.258Z,11.25
2018-08-20T03:18:31.426Z,11.25
2018-08-20T03:19:31.599Z,11.29
2018-08-20T03:20:31.534Z,11.22
2018-08-20T03:21:31.671Z,11.35
2018-08-20T03:22:32.151Z,11.23
2018-08-20T03:23:31.569Z,11.41
2018-08-20T03:24:31.619Z,11.46
2018-08-20T03:25:31.465Z,11.32
2018-08-20T03:26:31.411Z,11.45
2018-08-20T03:27:31.441Z,11.39
2018-08-20T03:28:31.587Z,11.39
2018-08-20T03:29:31.487Z,11.3
2018-08-20T03:30:31.741Z,11.28
2018-08-20T03:31:31.885Z,11.38
2018-08-20T03:32:31.639Z,11.44
2018-08-20T03:33:31.615Z,11.49
2018-08-20T03:34:31.464Z,11.49
2018-08-20T03:35:31.544Z,11.27
2018-08-20T03:36:31.497Z,11.27
2018-08-20T03:37:31.468Z,11.48
2018-08-20T03:38:31.465Z,11.47
2018-08-20T03:39:31.456Z,11.43
2018-08-20T03:40:31.430Z,11.38
2018-08-20T03:41:31.746Z,11.42
2018-08-20T03:42:31.503Z,11.37
2018-08-20T03:43:31.677Z,11.35
2018-08-20T03:44:31.642Z,11.29
2018-08-20T03:45:31.568Z,11.4
2018-08-20T03:46:31.478Z,11.28
2018-08-20T03:47:31.448Z,11.38
2018-08-20T03:48:31.647Z,11.43
2018-08-20T03:49:31.694Z,11.44
2018-08-20T03:50:32.192Z,11.47
2018-08-20T03:51:31.740Z,11.44
2018-08-20T03:52:31.629Z,11.36
2018-08-20T03:53:31.449Z,11.41
2018-08-20T03:54:31.464Z,11.34
2018-08-20T03:55:31.424Z,11.43
2018-08-20T03:56:31.437Z,11.45
2018-08-20T03:57:31.407Z,11.4
2018-08-20T03:58:31.460Z,11.39
2018-08-20T03:59:31.419Z,11.41
2018-08-20T04:00:31.567Z,11.3
2018-08-20T04:01:31.435Z,11.32
2018-08-20T04:02:31.376Z,11.29
2018-08-20T04:03:31.453Z,11.4
2018-08-20T04:04:31.431Z,11.45
2018-08-20T04:05:31.469Z,11.38
2018-08-20T04:06:31.472Z,11.37
2018-08-20T04:07:31.426Z,11.39
2018-08-20T04:08:31.385Z,11.41
2018-08-20T04:09:31.517Z,11.43
2018-08-20T04:10:31.431Z,11.35
2018-08-20T04:11:31.409Z,11.44
2018-08-20T04:12:31.388Z,11.41
2018-08-20T04:13:31.429Z,11.39
2018-08-20T04:14:31.515Z,11.4
2018-08-20T04:15:31.397Z,11.3
2018-08-20T04:16:31.430Z,11.38
2018-08-20T04:17:31.467Z,11.27
2018-08-20T04:18:31.540Z,11.34
2018-08-20T04:19:31.417Z,11.32
2018-08-20T04:20:31.466Z,11.25
2018-08-20T04:21:31.414Z,11.19
2018-08-20T04:22:31.363Z,11.33
2018-08-20T04:23:31.437Z,11.31
2018-08-20T04:24:31.407Z,11.3
2018-08-20T04:25:31.467Z,11.3
2018-08-20T04:26:31.399Z,11.23
2018-08-20T04:27:31.730Z,11.22
2018-08-20T04:28:31.423Z,11.13
2018-08-20T04:29:31.429Z,11.13
2018-08-20T04:30:31.762Z,11.18
2018-08-20T04:31:31.387Z,11.2
2018-08-20T04:32:31.695Z,11.24
2018-08-20T04:33:31.393Z,11.31
2018-08-20T04:34:31.419Z,11.31
2018-08-20T04:35:31.388Z,11.23
2018-08-20T04:36:32.203Z,11.37
2018-08-20T04:37:31.568Z,11.39
2018-08-20T04:38:31.474Z,11.34
2018-08-20T04:39:31.397Z,11.31
2018-08-20T04:40:31.405Z,11.29
2018-08-20T04:41:31.582Z,11.29
2018-08-20T04:42:31.397Z,11.25
2018-08-20T04:43:31.489Z,11.18
2018-08-20T04:44:31.419Z,11.17
2018-08-20T04:45:31.521Z,11.18
2018-08-20T04:46:31.475Z,11.12
2018-08-20T04:47:31.457Z,11.14
2018-08-20T04:48:31.635Z,11.17
2018-08-20T04:49:31.425Z,11.11
2018-08-20T04:50:34.046Z,11.17
2018-08-20T04:51:32.775Z,11.26
2018-08-20T04:52:31.606Z,11.13
2018-08-20T04:53:31.465Z,11.18
2018-08-20T04:54:31.640Z,11.17
2018-08-20T04:55:31.440Z,11.2
2018-08-20T04:56:31.551Z,11.25
2018-08-20T04:57:31.408Z,11.23
2018-08-20T04:58:31.461Z,11.13
2018-08-20T04:59:31.394Z,11.12
2018-08-20T05:00:31.403Z,11.2
2018-08-20T05:01:31.567Z,11.08
2018-08-20T05:02:31.479Z,11.09
2018-08-20T05:03:31.600Z,11.25
2018-08-20T05:04:31.554Z,11.26
2018-08-20T05:05:31.502Z,11.21
2018-08-20T05:06:31.485Z,11.2
2018-08-20T05:07:31.373Z,11.17
2018-08-20T05:08:31.604Z,11.2
2018-08-20T05:09:31.470Z,11.18
2018-08-20T05:10:31.545Z,11.18
2018-08-20T05:11:31.530Z,11.25
2018-08-20T05:12:31.526Z,11.19
2018-08-20T05:13:31.359Z,11.24
2018-08-20T05:14:31.433Z,11.2
2018-08-20T05:15:31.497Z,11.27
2018-08-20T05:16:31.410Z,11.26
2018-08-20T05:17:31.387Z,11.24
2018-08-20T05:18:31.365Z,11.24
2018-08-20T05:19:31.414Z,11.26
2018-08-20T05:20:31.354Z,11.24
2018-08-20T05:21:31.408Z,11.31
2018-08-20T05:22:31.415Z,11.22
2018-08-20T05:23:31.400Z,11.24
2018-08-20T05:24:31.457Z,11.34
2018-08-20T05:25:31.385Z,11.36
2018-08-20T05:26:31.431Z,11.29
2018-08-20T05:27:31.375Z,11.26
2018-08-20T05:28:31.423Z,11.32
2018-08-20T05:29:32.555Z,11.31
2018-08-20T05:30:31.429Z,11.31
2018-08-20T05:31:31.376Z,11.37
2018-08-20T05:32:31.387Z,11.52
2018-08-20T05:33:31.395Z,11.45
2018-08-20T05:34:31.408Z,11.33
2018-08-20T05:35:31.357Z,11.5
2018-08-20T05:36:31.433Z,11.43
2018-08-20T05:37:31.355Z,11.49
2018-08-20T05:38:31.568Z,11.42
2018-08-20T05:39:31.835Z,11.49
2018-08-20T05:40:31.433Z,11.34
2018-08-20T05:41:31.497Z,11.44
2018-08-20T05:42:31.450Z,11.39
2018-08-20T05:43:31.464Z,11.39
2018-08-20T05:44:31.791Z,11.55
2018-08-20T05:45:31.404Z,11.56
2018-08-20T05:46:31.475Z,11.62
2018-08-20T05:47:31.417Z,11.51
2018-08-20T05:48:31.551Z,11.41
2018-08-20T05:49:31.509Z,11.52
2018-08-20T05:50:31.798Z,11.44
2018-08-20T05:51:31.368Z,11.54
2018-08-20T05:52:31.899Z,11.52
2018-08-20T05:53:31.393Z,11.57
2018-08-20T05:54:32.168Z,11.49
2018-08-20T05:55:31.354Z,11.59
2018-08-20T05:56:31.506Z,11.61
2018-08-20T05:57:31.462Z,11.64
2018-08-20T05:58:31.512Z,11.61
2018-08-20T05:59:31.757Z,11.55
2018-08-20T06:00:31.362Z,11.54
2018-08-20T06:01:31.403Z,11.6
2018-08-20T06:02:31.535Z,11.56
2018-08-20T06:03:31.348Z,11.57
2018-08-20T06:04:31.394Z,11.77
2018-08-20T06:05:32.316Z,11.73
2018-08-20T06:06:31.450Z,11.67
2018-08-20T06:07:31.367Z,11.56
2018-08-20T06:08:31.387Z,11.77
2018-08-20T06:09:31.494Z,11.7
2018-08-20T06:10:31.484Z,11.68
2018-08-20T06:11:31.849Z,11.75
2018-08-20T06:12:31.384Z,11.74
2018-08-20T06:13:31.556Z,11.77
2018-08-20T06:14:32.244Z,11.73
2018-08-20T06:15:31.367Z,11.75
2018-08-20T06:16:31.393Z,11.72
2018-08-20T06:17:31.382Z,11.71
2018-08-20T06:18:31.415Z,11.76
2018-08-20T06:19:32.030Z,11.68
2018-08-20T06:20:31.474Z,11.72
2018-08-20T06:21:31.492Z,11.72
2018-08-20T06:22:32.818Z,11.77
2018-08-20T06:23:31.373Z,11.74
2018-08-20T06:24:31.355Z,11.68
2018-08-20T06:25:31.460Z,11.75
2018-08-20T06:26:31.350Z,11.81
2018-08-20T06:27:31.341Z,11.73
2018-08-20T06:28:31.818Z,11.82
2018-08-20T06:29:31.349Z,11.78
2018-08-20T06:30:31.359Z,11.8
2018-08-20T06:31:31.807Z,11.76
2018-08-20T06:32:31.370Z,11.79
2018-08-20T06:33:31.370Z,11.82
2018-08-20T06:34:31.375Z,11.78
2018-08-20T06:35:31.396Z,11.75
2018-08-20T06:36:31.431Z,11.84
2018-08-20T06:37:31.488Z,11.87
2018-08-20T06:38:31.345Z,11.77
2018-08-20T06:39:31.368Z,11.77
2018-08-20T06:40:31.365Z,11.83
2018-08-20T06:41:31.961Z,11.83
2018-08-20T06:42:31.396Z,11.9
2018-08-20T06:43:31.412Z,11.83
2018-08-20T06:44:31.390Z,11.87
2018-08-20T06:45:34.344Z,11.85
2018-08-20T06:46:31.421Z,11.79
2018-08-20T06:47:31.385Z,11.88
2018-08-20T06:48:32.200Z,11.88
2018-08-20T06:49:32.085Z,11.9
2018-08-20T06:50:31.356Z,11.94
2018-08-20T06:51:31.408Z,11.93
2018-08-20T06:52:31.424Z,11.9
2018-08-20T06:53:31.488Z,11.91
2018-08-20T06:54:31.939Z,11.87
2018-08-20T06:55:31.389Z,11.9
2018-08-20T06:56:31.420Z,11.97
2018-08-20T06:57:31.568Z,12.05
2018-08-20T06:58:31.393Z,11.96
2018-08-20T06:59:31.432Z,11.94
2018-08-20T07:00:31.347Z,12
2018-08-20T07:01:31.409Z,11.98
2018-08-20T07:02:31.454Z,11.88
2018-08-20T07:03:31.379Z,11.85
2018-08-20T07:04:31.362Z,11.91
2018-08-20T07:05:31.398Z,11.98
2018-08-20T07:06:32.179Z,11.94
2018-08-20T07:07:31.453Z,11.94
2018-08-20T07:08:31.486Z,12.04
2018-08-20T07:09:31.347Z,12.02
2018-08-20T07:10:31.491Z,12.01
2018-08-20T07:11:31.452Z,11.99
2018-08-20T07:12:31.551Z,12.04
2018-08-20T07:13:31.393Z,12.04
2018-08-20T07:14:31.536Z,12.09
2018-08-20T07:15:31.391Z,12.13
2018-08-20T07:16:31.421Z,12.11
2018-08-20T07:17:32.226Z,12.08
2018-08-20T07:18:31.690Z,12.14
2018-08-20T07:19:31.498Z,12.07
2018-08-20T07:20:31.378Z,12.08
2018-08-20T07:21:31.489Z,12.04
2018-08-20T07:22:31.455Z,12.01
2018-08-20T07:23:32.634Z,12.06
2018-08-20T07:24:32.220Z,12.13
2018-08-20T07:25:31.361Z,12.13
2018-08-20T07:26:31.501Z,12.11
2018-08-20T07:27:31.326Z,12.06
2018-08-20T07:28:31.375Z,12.07
2018-08-20T07:29:31.354Z,12.14
2018-08-20T07:30:31.333Z,12.17
2018-08-20T07:31:31.414Z,12.12
2018-08-20T07:32:31.344Z,12.2
2018-08-20T07:33:31.575Z,12.3
2018-08-20T07:34:31.355Z,12.24
2018-08-20T07:35:31.592Z,12.17
2018-08-20T07:36:31.348Z,12.26
2018-08-20T07:37:31.385Z,12.25
2018-08-20T07:38:31.546Z,12.25
2018-08-20T07:39:31.468Z,12.2
2018-08-20T07:40:31.579Z,12.31
2018-08-20T07:41:31.420Z,12.31
2018-08-20T07:42:32.023Z,12.41
2018-08-20T07:43:31.347Z,12.39
2018-08-20T07:44:31.379Z,12.37
2018-08-20T07:45:31.507Z,12.35
2018-08-20T07:46:31.461Z,12.34
2018-08-20T07:47:31.388Z,12.34
2018-08-20T07:48:31.347Z,12.28
2018-08-20T07:49:31.387Z,12.26
2018-08-20T07:50:31.361Z,12.27
2018-08-20T07:51:31.343Z,12.3
2018-08-20T07:52:31.396Z,12.27
2018-08-20T07:53:31.336Z,12.45
2018-08-20T07:54:31.322Z,12.44
2018-08-20T07:55:31.637Z,12.39
2018-08-20T07:56:31.333Z,12.36
2018-08-20T07:57:31.396Z,12.43
2018-08-20T07:58:31.422Z,12.37
2018-08-20T07:59:31.327Z,12.38
2018-08-20T08:00:31.353Z,12.4
2018-08-20T08:01:31.359Z,12.4
2018-08-20T08:02:31.392Z,12.4
2018-08-20T08:03:31.320Z,12.35
2018-08-20T08:04:31.341Z,12.43
2018-08-20T08:05:31.421Z,12.5
2018-08-20T08:06:31.384Z,12.57
2018-08-20T08:07:31.320Z,12.51
2018-08-20T08:08:31.329Z,12.42
2018-08-20T08:09:31.427Z,12.45
2018-08-20T08:10:31.371Z,12.46
2018-08-20T08:11:31.400Z,12.54
2018-08-20T08:12:31.331Z,12.55
2018-08-20T08:13:31.449Z,12.56
2018-08-20T08:14:31.344Z,12.46
2018-08-20T08:15:31.369Z,12.39
2018-08-20T08:16:31.383Z,12.45
2018-08-20T08:17:31.555Z,12.61
2018-08-20T08:18:31.339Z,12.69
2018-08-20T08:19:31.815Z,12.67
2018-08-20T08:20:31.358Z,12.51
2018-08-20T08:21:31.389Z,12.57
2018-08-20T08:22:31.388Z,12.68
2018-08-20T08:23:31.324Z,12.73
2018-08-20T08:24:31.369Z,12.72
2018-08-20T08:25:31.460Z,12.67
2018-08-20T08:26:31.824Z,12.66
2018-08-20T08:27:31.372Z,12.65
2018-08-20T08:28:31.364Z,12.64
2018-08-20T08:29:31.846Z,12.58
2018-08-20T08:30:31.409Z,12.62
2018-08-20T08:31:31.324Z,12.66
2018-08-20T08:32:31.440Z,12.61
2018-08-20T08:33:31.341Z,12.66
2018-08-20T08:34:31.485Z,12.64
2018-08-20T08:35:31.373Z,12.59
2018-08-20T08:36:31.524Z,12.57
2018-08-20T08:37:31.342Z,12.69
2018-08-20T08:38:31.371Z,12.58
2018-08-20T08:39:31.973Z,12.67
2018-08-20T08:40:31.347Z,12.64
2018-08-20T08:41:31.308Z,12.6
2018-08-20T08:42:31.397Z,12.68
2018-08-20T08:43:31.360Z,12.71
2018-08-20T08:44:31.363Z,12.61
2018-08-20T08:45:31.297Z,12.66
2018-08-20T08:46:31.371Z,12.66
2018-08-20T08:47:31.316Z,12.7
2018-08-20T08:48:31.528Z,12.84
2018-08-20T08:49:31.831Z,12.82
2018-08-20T08:50:31.332Z,12.79
2018-08-20T08:51:31.321Z,12.88
2018-08-20T08:52:31.327Z,12.78
2018-08-20T08:53:31.400Z,12.77
2018-08-20T08:54:31.311Z,12.8
2018-08-20T08:55:31.432Z,12.85
2018-08-20T08:56:31.408Z,12.84
2018-08-20T08:57:31.318Z,12.8
2018-08-20T08:58:31.487Z,12.81
2018-08-20T08:59:31.775Z,12.91
2018-08-20T09:00:31.910Z,12.92
2018-08-20T09:01:31.380Z,13.09
2018-08-20T09:02:31.343Z,12.95
2018-08-20T09:03:31.383Z,12.91
2018-08-20T09:04:31.436Z,12.92
2018-08-20T09:05:31.421Z,12.86
2018-08-20T09:06:31.340Z,13.05
2018-08-20T09:07:31.321Z,13.03
2018-08-20T09:08:31.316Z,12.9
2018-08-20T09:09:31.743Z,13.01
2018-08-20T09:10:31.346Z,12.69
2018-08-20T09:11:31.349Z,12.74
2018-08-20T09:12:31.366Z,12.82
2018-08-20T09:13:31.317Z,12.74
2018-08-20T09:14:31.315Z,12.78
2018-08-20T09:15:31.295Z,12.7
2018-08-20T09:16:31.343Z,12.77
2018-08-20T09:17:31.319Z,12.85
2018-08-20T09:18:31.347Z,12.82
2018-08-20T09:19:31.839Z,12.88
2018-08-20T09:20:31.649Z,12.77
2018-08-20T09:21:31.345Z,12.72
2018-08-20T09:22:31.697Z,12.75
2018-08-20T09:23:31.329Z,12.93
2018-08-20T09:24:31.307Z,13.02
2018-08-20T09:25:31.309Z,12.9
2018-08-20T09:26:31.312Z,12.95
2018-08-20T09:27:31.308Z,13.11
2018-08-20T09:28:31.409Z,12.96
2018-08-20T09:29:31.809Z,12.85
2018-08-20T09:30:31.334Z,13.01
2018-08-20T09:31:31.482Z,12.89
2018-08-20T09:32:31.342Z,12.83
2018-08-20T09:33:31.407Z,12.82
2018-08-20T09:34:31.463Z,12.94
2018-08-20T09:35:31.442Z,12.92
2018-08-20T09:36:31.488Z,12.87
2018-08-20T09:37:31.347Z,12.77
2018-08-20T09:38:31.333Z,12.83
2018-08-20T09:39:31.775Z,12.77
2018-08-20T09:40:31.299Z,12.78
2018-08-20T09:41:31.384Z,12.7
2018-08-20T09:42:31.286Z,12.74
2018-08-20T09:43:31.508Z,12.88
2018-08-20T09:44:31.328Z,12.98
2018-08-20T09:45:31.372Z,12.94
2018-08-20T09:46:31.392Z,12.79
2018-08-20T09:47:31.308Z,12.82
2018-08-20T09:48:31.637Z,12.8
2018-08-20T09:49:31.801Z,12.82
2018-08-20T09:50:31.311Z,12.72
2018-08-20T09:51:31.423Z,12.59
2018-08-20T09:52:31.405Z,12.5
2018-08-20T09:53:32.179Z,12.59
2018-08-20T09:54:31.327Z,12.67
2018-08-20T09:55:31.375Z,12.74
2018-08-20T09:56:32.029Z,12.81
2018-08-20T09:57:31.313Z,12.66
2018-08-20T09:58:31.437Z,12.75
2018-08-20T09:59:31.839Z,12.85
2018-08-20T10:00:31.563Z,12.78
2018-08-20T10:01:31.389Z,12.83
2018-08-20T10:02:31.323Z,12.77
2018-08-20T10:03:31.321Z,12.78
2018-08-20T10:04:31.361Z,12.81
2018-08-20T10:05:31.345Z,12.77
2018-08-20T10:06:31.410Z,12.8
2018-08-20T10:07:31.790Z,12.76
2018-08-20T10:08:32.227Z,12.74
2018-08-20T10:09:31.895Z,12.71
2018-08-20T10:10:31.916Z,12.77
2018-08-20T10:11:31.347Z,12.8
2018-08-20T10:12:31.337Z,12.89
2018-08-20T10:13:31.773Z,12.86
2018-08-20T10:14:31.300Z,12.93
2018-08-20T10:15:31.369Z,12.83
2018-08-20T10:16:31.348Z,12.82
2018-08-20T10:17:31.352Z,12.85
2018-08-20T10:18:32.083Z,12.94
2018-08-20T10:19:31.894Z,12.91
2018-08-20T10:20:31.627Z,12.98
2018-08-20T10:21:31.413Z,12.96
2018-08-20T10:22:31.911Z,12.88
2018-08-20T10:23:33.178Z,12.94
2018-08-20T10:24:31.641Z,12.89
2018-08-20T10:25:31.323Z,12.87
2018-08-20T10:26:31.497Z,12.99
2018-08-20T10:27:31.306Z,12.95
2018-08-20T10:28:31.295Z,12.91
2018-08-20T10:29:31.806Z,13.05
2018-08-20T10:30:31.766Z,12.92
2018-08-20T10:31:31.407Z,12.96
2018-08-20T10:32:31.818Z,12.91
2018-08-20T10:33:31.506Z,12.94
2018-08-20T10:34:31.337Z,12.84
2018-08-20T10:35:31.358Z,12.85
2018-08-20T10:36:31.336Z,12.92
2018-08-20T10:37:32.014Z,12.84
2018-08-20T10:38:31.362Z,12.84
2018-08-20T10:39:31.751Z,12.86
2018-08-20T10:40:31.430Z,12.93
2018-08-20T10:41:31.301Z,13.02
2018-08-20T10:42:31.620Z,12.93
2018-08-20T10:43:31.428Z,12.85
2018-08-20T10:44:31.289Z,12.81
2018-08-20T10:45:31.571Z,12.98
2018-08-20T10:46:31.301Z,12.84
2018-08-20T10:47:32.349Z,12.91
2018-08-20T10:48:31.436Z,12.93
2018-08-20T10:49:31.764Z,12.98
2018-08-20T10:50:31.425Z,12.93
2018-08-20T10:51:31.351Z,12.88
2018-08-20T10:52:31.372Z,12.96
2018-08-20T10:53:31.542Z,12.93
2018-08-20T10:54:31.317Z,12.7
2018-08-20T10:55:31.307Z,12.72
2018-08-20T10:56:31.376Z,12.73
2018-08-20T10:57:31.339Z,12.73
2018-08-20T10:58:31.424Z,12.76
2018-08-20T10:59:32.018Z,12.73
2018-08-20T11:00:31.305Z,12.74
2018-08-20T11:01:31.866Z,12.79
2018-08-20T11:02:31.328Z,12.77
2018-08-20T11:03:31.433Z,12.79
2018-08-20T11:04:31.916Z,12.78
2018-08-20T11:05:31.344Z,12.89
2018-08-20T11:06:31.356Z,12.76
2018-08-20T11:07:31.340Z,12.6
2018-08-20T11:08:31.396Z,12.65
2018-08-20T11:09:31.328Z,12.68
2018-08-20T11:10:31.355Z,12.84
2018-08-20T11:11:31.282Z,12.91
2018-08-20T11:12:31.939Z,12.94
2018-08-20T11:13:31.479Z,12.84
2018-08-20T11:14:31.444Z,12.82
2018-08-20T11:15:31.372Z,12.87
2018-08-20T11:16:31.312Z,12.7
2018-08-20T11:17:32.080Z,12.87
2018-08-20T11:18:32.476Z,12.81
2018-08-20T11:19:31.841Z,12.73
2018-08-20T11:20:31.328Z,12.79
2018-08-20T11:21:31.325Z,12.86
2018-08-20T11:22:31.732Z,12.79
2018-08-20T11:23:31.303Z,12.81
2018-08-20T11:24:31.313Z,12.94
2018-08-20T11:25:31.314Z,12.92
2018-08-20T11:26:31.284Z,12.89
2018-08-20T11:27:31.654Z,12.84
2018-08-20T11:28:31.348Z,12.89
2018-08-20T11:29:31.804Z,12.85
2018-08-20T11:30:31.312Z,12.94
2018-08-20T11:31:31.368Z,12.93
2018-08-20T11:32:31.296Z,13
2018-08-20T11:33:31.291Z,12.98
2018-08-20T11:34:31.435Z,12.94
2018-08-20T11:35:32.361Z,12.89
2018-08-20T11:36:31.638Z,12.85
2018-08-20T11:37:31.328Z,12.86
2018-08-20T11:38:31.277Z,12.88
2018-08-20T11:39:32.079Z,12.87
2018-08-20T11:40:31.277Z,12.82
2018-08-20T11:41:31.303Z,12.82
2018-08-20T11:42:31.337Z,12.87
2018-08-20T11:43:31.573Z,12.95
2018-08-20T11:44:31.333Z,13.06
2018-08-20T11:45:31.506Z,12.99
2018-08-20T11:46:31.288Z,12.9
2018-08-20T11:47:31.342Z,12.95
2018-08-20T11:48:31.365Z,12.97
2018-08-20T11:49:31.762Z,12.92
2018-08-20T11:50:31.305Z,12.9
2018-08-20T11:51:31.328Z,12.94
2018-08-20T11:52:31.357Z,12.99
2018-08-20T11:53:31.326Z,12.99
2018-08-20T11:54:31.371Z,12.99
2018-08-20T11:55:31.919Z,13.04
2018-08-20T11:56:31.460Z,13.01
2018-08-20T11:57:31.352Z,12.93
2018-08-20T11:58:31.328Z,12.93
2018-08-20T11:59:31.841Z,12.88
2018-08-20T12:00:31.591Z,12.85
2018-08-20T12:01:31.279Z,12.87
2018-08-20T12:02:31.496Z,12.86
2018-08-20T12:03:31.325Z,12.9
2018-08-20T12:04:31.334Z,12.87
2018-08-20T12:05:31.278Z,12.95
2018-08-20T12:06:31.353Z,12.94
2018-08-20T12:07:31.689Z,12.93
2018-08-20T12:08:31.341Z,12.93
2018-08-20T12:09:31.831Z,12.86
2018-08-20T12:10:31.355Z,13
2018-08-20T12:11:31.315Z,13.02
2018-08-20T12:12:31.405Z,13
2018-08-20T12:13:31.375Z,12.96
2018-08-20T12:14:32.237Z,13.02
2018-08-20T12:15:31.382Z,12.98
2018-08-20T12:16:31.602Z,12.87
2018-08-20T12:17:31.444Z,12.85
2018-08-20T12:18:31.553Z,13
2018-08-20T12:19:31.863Z,12.96
2018-08-20T12:20:31.432Z,12.99
2018-08-20T12:21:31.312Z,13.01
2018-08-20T12:22:31.979Z,12.91
2018-08-20T12:23:31.307Z,12.87
2018-08-20T12:24:31.332Z,12.9
2018-08-20T12:25:31.529Z,12.98
2018-08-20T12:26:31.292Z,13.02
2018-08-20T12:27:31.339Z,13.08
2018-08-20T12:28:31.446Z,13.01
2018-08-20T12:29:31.283Z,13.04
2018-08-20T12:30:31.454Z,13.01
2018-08-20T12:31:31.330Z,13
2018-08-20T12:32:31.300Z,13.02
2018-08-20T12:33:31.313Z,12.95
2018-08-20T12:34:31.334Z,12.98
2018-08-20T12:35:31.603Z,12.98
2018-08-20T12:36:31.282Z,12.93
2018-08-20T12:37:31.303Z,12.92
2018-08-20T12:38:31.294Z,13.01
2018-08-20T12:39:32.668Z,13.01
2018-08-20T12:40:32.225Z,13.02
2018-08-20T12:41:31.334Z,12.99
2018-08-20T12:42:31.625Z,13.02
2018-08-20T12:43:31.297Z,13.01
2018-08-20T12:44:31.303Z,13.04
2018-08-20T12:45:31.285Z,13.08
2018-08-20T12:46:31.316Z,13.12
2018-08-20T12:47:31.907Z,13.17
2018-08-20T12:48:31.331Z,13.06
2018-08-20T12:49:31.250Z,13.18
2018-08-20T12:50:31.299Z,13.04
2018-08-20T12:51:31.327Z,13.11
2018-08-20T12:52:31.292Z,13.11
2018-08-20T12:53:31.449Z,13.13
2018-08-20T12:54:31.314Z,13.15
2018-08-20T12:55:31.537Z,13.06